Terminal Aerodrome Forecast
Issued by NWS

Home | Current Version | Previous Version | Graphics & Text | Print | Product List | Glossary On
Versions: 1 2 3 4 5 6 7 8 9 10 11 12 13 14 15
000
FTUS45 KGGW 101900 AAA
TAFSDY
TAF AMD
KSDY 101913Z 1019/1118 20013KT P6SM FEW110
     FM102300 33011KT P6SM FEW100
     FM110300 35008KT P6SM FEW100
      AMD LTD TO CLD VIS AND WIND=

USA.gov is the U.S. government's official web portal to all federal, state and local government web resources and services.